createdAt,value
2018-05-07T00:00:41.153Z,27.02
2018-05-07T00:03:10.978Z,25.10
2018-05-07T00:05:40.848Z,25.85
2018-05-07T00:08:10.636Z,25.90
2018-05-07T00:10:40.793Z,30.00
2018-05-07T00:13:11.928Z,25.97
2018-05-07T00:15:41.741Z,25.33
2018-05-07T00:18:11.565Z,26.47
2018-05-07T00:20:42.204Z,27.37
2018-05-07T00:23:11.989Z,27.20
2018-05-07T00:25:41.742Z,27.20
2018-05-07T00:28:11.653Z,27.63
2018-05-07T00:30:41.776Z,29.22
2018-05-07T00:33:11.862Z,28.40
2018-05-07T00:35:42.791Z,27.17
2018-05-07T00:38:13.419Z,27.43
2018-05-07T00:40:43.214Z,25.70
2018-05-07T00:43:13.617Z,25.30
2018-05-07T00:45:43.393Z,23.52
2018-05-07T00:48:13.931Z,24.80
2018-05-07T00:50:43.665Z,26.10
2018-05-07T00:53:13.516Z,25.60
2018-05-07T00:55:43.312Z,25.33
2018-05-07T00:58:13.852Z,23.50
2018-05-07T01:00:43.599Z,23.48
2018-05-07T01:03:14.351Z,23.10
2018-05-07T01:05:44.125Z,23.33
2018-05-07T01:08:13.909Z,22.00
2018-05-07T01:10:43.664Z,22.30
2018-05-07T01:13:13.789Z,23.87
2018-05-07T01:15:44.715Z,21.90
2018-05-07T01:18:15.267Z,23.57
2018-05-07T01:20:45.016Z,21.52
2018-05-07T01:23:14.794Z,22.60
2018-05-07T01:25:44.884Z,23.10
2018-05-07T01:28:15.420Z,23.47
2018-05-07T01:30:45.923Z,24.35
2018-05-07T01:33:15.734Z,23.07
2018-05-07T01:35:45.459Z,24.12
2018-05-07T01:38:15.987Z,22.97
2018-05-07T01:40:46.571Z,22.20
2018-05-07T01:43:16.329Z,22.45
2018-05-07T01:45:46.870Z,21.80
2018-05-07T01:48:17.423Z,22.33
2018-05-07T01:50:47.202Z,23.45
2018-05-07T01:53:17.777Z,20.90
2018-05-07T01:55:47.592Z,22.37
2018-05-07T01:58:17.321Z,20.57
2018-05-07T02:00:47.880Z,20.60
2018-05-07T02:03:18.412Z,21.10
2018-05-07T02:05:48.974Z,21.45
2018-05-07T02:08:18.725Z,26.27
2018-05-07T02:10:48.565Z,26.40
2018-05-07T02:13:19.081Z,26.53
2018-05-07T02:15:48.860Z,30.57
2018-05-07T02:18:18.692Z,28.07
2018-05-07T02:20:48.408Z,33.90
2018-05-07T02:23:18.143Z,31.13
2018-05-07T02:25:48.682Z,21.90
2018-05-07T02:28:18.762Z,21.47
2018-05-07T02:30:48.557Z,21.13
2018-05-07T02:33:18.415Z,20.20
2018-05-07T02:35:49.060Z,19.60
2018-05-07T02:38:18.849Z,23.50
2018-05-07T02:40:49.409Z,22.35
2018-05-07T02:43:20.201Z,18.83
2018-05-07T02:45:49.968Z,16.37
2018-05-07T02:48:19.776Z,16.23
2018-05-07T02:50:49.575Z,15.37
2018-05-07T02:53:19.354Z,14.97
2018-05-07T02:55:50.128Z,16.15
2018-05-07T02:58:19.897Z,17.80
2018-05-07T03:00:51.593Z,18.07
2018-05-07T03:03:21.689Z,18.10
2018-05-07T03:05:52.247Z,18.00
2018-05-07T03:08:22.896Z,18.30
2018-05-07T03:10:52.712Z,18.50
2018-05-07T03:13:22.488Z,17.70
2018-05-07T03:15:52.261Z,17.73
2018-05-07T03:18:22.102Z,17.37
2018-05-07T03:20:52.627Z,18.70
2018-05-07T03:23:23.210Z,18.60
2018-05-07T03:25:52.963Z,18.07
2018-05-07T03:28:23.504Z,18.10
2018-05-07T03:30:54.048Z,17.90
2018-05-07T03:33:23.881Z,19.30
2018-05-07T03:35:53.648Z,17.10
2018-05-07T03:38:24.189Z,18.17
2018-05-07T03:40:54.072Z,19.37
2018-05-07T03:43:23.829Z,20.57
2018-05-07T03:45:53.611Z,21.58
2018-05-07T03:48:24.958Z,23.53
2018-05-07T03:50:55.482Z,27.50
2018-05-07T03:53:26.835Z,27.30
2018-05-07T03:55:57.874Z,25.33
2018-05-07T03:58:28.388Z,24.20
2018-05-07T04:00:58.126Z,26.67
2018-05-07T04:03:27.978Z,26.23
2018-05-07T04:05:57.755Z,25.00
2018-05-07T04:08:28.284Z,25.30
2018-05-07T04:10:58.050Z,25.37
2018-05-07T04:13:27.831Z,24.87
2018-05-07T04:15:57.580Z,26.13
2018-05-07T04:18:38.418Z,26.67
2018-05-07T04:21:17.566Z,26.97
2018-05-07T04:23:58.326Z,27.87
2018-05-07T04:26:28.083Z,29.07
2018-05-07T04:28:58.577Z,27.00
2018-05-07T04:31:28.329Z,30.97
2018-05-07T04:33:58.843Z,27.67
2018-05-07T04:36:30.412Z,27.60
2018-05-07T04:39:00.937Z,26.40
2018-05-07T04:41:32.396Z,24.40
2018-05-07T04:44:02.149Z,23.00
2018-05-07T04:46:31.910Z,21.70
2018-05-07T04:49:02.425Z,18.50
2018-05-07T04:51:32.924Z,20.37
2018-05-07T04:54:02.773Z,16.97
2018-05-07T04:56:33.257Z,19.20
2018-05-07T04:59:03.005Z,16.67
2018-05-07T05:01:33.746Z,16.43
2018-05-07T05:04:04.276Z,16.10
2018-05-07T05:06:34.813Z,17.03
2018-05-07T05:09:07.288Z,15.13
2018-05-07T05:11:37.783Z,18.67
2018-05-07T05:14:07.664Z,20.00
2018-05-07T05:16:37.368Z,19.00
2018-05-07T05:19:07.138Z,19.37
2018-05-07T05:21:37.868Z,19.60
2018-05-07T05:24:08.339Z,17.87
2018-05-07T05:26:38.118Z,17.47
2018-05-07T05:29:08.639Z,16.83
2018-05-07T05:31:39.146Z,16.47
2018-05-07T05:34:08.866Z,14.37
2018-05-07T05:36:38.622Z,15.60
2018-05-07T05:39:09.218Z,16.47
2018-05-07T05:41:39.734Z,18.37
2018-05-07T05:44:10.267Z,17.60
2018-05-07T05:46:41.726Z,16.85
2018-05-07T05:49:12.266Z,18.10
2018-05-07T05:51:42.781Z,14.52
2018-05-07T05:54:13.313Z,16.10
2018-05-07T05:56:44.521Z,16.00
2018-05-07T05:59:15.103Z,14.60
2018-05-07T06:01:45.432Z,13.03
2018-05-07T06:04:15.202Z,15.10
2018-05-07T06:06:45.523Z,15.82
2018-05-07T06:09:15.506Z,16.52
2018-05-07T06:11:46.008Z,17.12
2018-05-07T06:14:15.759Z,17.08
2018-05-07T06:16:46.316Z,17.20
2018-05-07T16:39:54.022Z,19.50
2018-05-07T16:42:23.768Z,21.33
2018-05-07T16:44:53.504Z,19.97
2018-05-07T16:47:23.256Z,20.27
2018-05-07T16:49:53.748Z,21.03
2018-05-07T16:52:23.499Z,19.70
2018-05-07T16:54:53.273Z,20.37
2018-05-07T16:57:23.025Z,20.13
2018-05-07T16:59:52.768Z,19.60
2018-05-07T17:02:22.531Z,21.37
2018-05-07T17:04:53.082Z,21.50
2018-05-07T17:07:23.393Z,22.83
2018-05-07T17:09:53.913Z,22.07
2018-05-07T17:12:24.487Z,22.40
2018-05-07T17:14:54.299Z,20.60
2018-05-07T17:17:24.094Z,22.20
2018-05-07T17:19:53.850Z,21.77
2018-05-07T17:22:23.602Z,22.63
2018-05-07T17:24:53.350Z,22.00
2018-05-07T17:27:23.086Z,22.67
2018-05-07T17:29:52.920Z,20.87
2018-05-07T17:32:23.458Z,21.67
2018-05-07T17:34:53.979Z,21.03
2018-05-07T17:37:24.462Z,21.30
2018-05-07T17:39:54.209Z,21.57
2018-05-07T17:42:24.716Z,21.40
2018-05-07T17:45:06.377Z,22.37
2018-05-07T17:47:47.266Z,22.23
2018-05-07T17:50:17.026Z,21.87
2018-05-07T17:52:47.546Z,21.87
2018-05-07T17:55:18.112Z,22.17
2018-05-07T17:57:47.893Z,23.40
2018-05-07T18:00:18.403Z,23.50
2018-05-07T18:02:49.711Z,25.07
2018-05-07T18:05:19.486Z,24.70
2018-05-07T18:07:50.031Z,26.57
2018-05-07T18:10:20.791Z,26.43
2018-05-07T18:12:50.592Z,27.70
2018-05-07T18:15:20.365Z,28.57
2018-05-07T18:17:51.150Z,27.73
2018-05-07T18:20:21.027Z,26.37
2018-05-07T18:22:50.814Z,27.80
2018-05-07T18:25:21.361Z,28.03
2018-05-07T18:27:51.924Z,27.63
2018-05-07T18:30:21.700Z,31.30
2018-05-07T18:32:53.031Z,27.93
2018-05-07T18:35:23.840Z,26.67
2018-05-07T18:37:53.604Z,25.40
2018-05-07T18:40:23.394Z,25.30
2018-05-07T18:42:53.881Z,25.63
2018-05-07T18:45:23.634Z,26.00
2018-05-07T18:47:54.157Z,24.97
2018-05-07T18:50:24.663Z,24.90
2018-05-07T18:52:55.931Z,26.10
2018-05-07T18:55:26.454Z,23.93
2018-05-07T18:57:56.215Z,22.90
2018-05-07T19:00:26.139Z,23.37
2018-05-07T19:02:55.872Z,22.73
2018-05-07T19:05:25.692Z,23.07
2018-05-07T19:07:55.424Z,24.00
2018-05-07T19:10:25.916Z,23.63
2018-05-07T19:12:55.742Z,23.20
2018-05-07T19:15:25.466Z,24.07
2018-05-07T19:17:55.969Z,23.90
2018-05-07T19:20:25.741Z,23.30
2018-05-07T19:22:55.531Z,21.10
2018-05-07T19:25:26.039Z,19.80
2018-05-07T19:27:55.777Z,21.00
2018-05-07T19:30:25.491Z,21.80
2018-05-07T19:32:56.098Z,20.53
2018-05-07T19:35:26.607Z,19.40
2018-05-07T19:37:56.342Z,20.60
2018-05-07T19:40:26.870Z,21.37
2018-05-07T19:42:57.369Z,21.23
2018-05-07T19:45:27.142Z,22.40
2018-05-07T19:47:56.953Z,21.30
2018-05-07T19:50:26.797Z,20.20
2018-05-07T19:52:56.547Z,22.23
2018-05-07T19:55:32.533Z,23.23
2018-05-07T19:58:02.559Z,21.73
2018-05-07T20:00:32.368Z,22.43
2018-05-07T20:03:02.104Z,24.60
2018-05-07T20:05:31.863Z,25.07
2018-05-07T20:08:03.212Z,22.63
2018-05-07T20:10:33.764Z,20.60
2018-05-07T20:13:03.550Z,23.93
2018-05-07T20:15:34.070Z,21.40
2018-05-07T20:18:05.577Z,25.60
2018-05-07T20:20:35.289Z,22.80
2018-05-07T20:23:05.937Z,24.40
2018-05-07T20:25:36.733Z,24.17
2018-05-07T20:28:06.497Z,22.57
2018-05-07T20:30:37.010Z,23.53
2018-05-07T20:33:06.885Z,21.70
2018-05-07T20:35:36.664Z,23.23
2018-05-07T20:38:07.199Z,23.37
2018-05-07T20:40:36.928Z,23.97
2018-05-07T20:43:06.728Z,22.77
2018-05-07T20:45:37.559Z,23.07
2018-05-07T20:48:08.123Z,22.20
2018-05-07T20:50:37.898Z,21.73
2018-05-07T20:53:08.416Z,22.73
2018-05-07T20:55:39.000Z,23.43
2018-05-07T20:58:08.983Z,23.90
2018-05-07T21:00:38.734Z,24.97
2018-05-07T21:03:08.741Z,23.90
2018-05-07T21:05:38.503Z,22.80
2018-05-07T21:08:09.030Z,22.70
2018-05-07T21:10:40.487Z,24.53
2018-05-07T21:13:11.089Z,22.70
2018-05-07T21:15:41.648Z,23.30
2018-05-07T21:18:12.160Z,22.43
2018-05-07T21:20:41.923Z,22.97
2018-05-07T21:23:12.492Z,21.77
2018-05-07T21:25:42.255Z,22.27
2018-05-07T21:28:12.012Z,21.90
2018-05-07T21:30:41.740Z,23.83
2018-05-07T21:33:12.303Z,21.80
2018-05-07T21:35:42.100Z,22.20
2018-05-07T21:38:12.953Z,24.57
2018-05-07T21:40:42.694Z,21.90
2018-05-07T21:43:13.412Z,21.73
2018-05-07T21:45:43.900Z,21.67
2018-05-07T21:48:14.446Z,22.37
2018-05-07T21:50:44.192Z,22.63
2018-05-07T21:53:13.960Z,22.87
2018-05-07T21:55:43.712Z,23.83
2018-05-07T21:58:13.457Z,23.47
2018-05-07T22:00:43.210Z,22.60
2018-05-07T22:03:13.818Z,21.63
2018-05-07T22:05:43.614Z,22.20
2018-05-07T22:08:14.186Z,20.30
2018-05-07T22:10:44.023Z,21.23
2018-05-07T22:13:13.792Z,21.70
2018-05-07T22:15:43.556Z,21.47
2018-05-07T22:18:13.298Z,21.20
2018-05-07T22:20:43.813Z,19.30
2018-05-07T22:23:14.350Z,19.30
2018-05-07T22:25:44.894Z,21.00
2018-05-07T22:28:15.411Z,18.17
2018-05-07T22:30:45.932Z,19.50
2018-05-07T22:33:16.465Z,17.47
2018-05-07T22:35:46.970Z,17.47
2018-05-07T22:38:16.736Z,16.80
2018-05-07T22:40:47.259Z,16.80
2018-05-07T22:43:17.022Z,17.23
2018-05-07T22:45:48.511Z,17.67
2018-05-07T22:48:18.279Z,16.43
2018-05-07T22:50:48.029Z,16.90
2018-05-07T22:53:17.800Z,18.43
2018-05-07T22:55:47.631Z,16.10
2018-05-07T22:58:18.144Z,16.40
2018-05-07T23:00:48.007Z,17.87
2018-05-07T23:03:17.794Z,16.73
2018-05-07T23:05:48.324Z,17.03
2018-05-07T23:08:18.848Z,16.27
2018-05-07T23:10:49.378Z,17.93
2018-05-07T23:13:19.876Z,19.30
2018-05-07T23:15:49.643Z,17.30
2018-05-07T23:18:19.400Z,18.60
2018-05-07T23:20:49.269Z,18.90
2018-05-07T23:23:19.029Z,16.80
2018-05-07T23:25:48.753Z,18.10
2018-05-07T23:28:19.245Z,19.27
2018-05-07T23:30:48.995Z,18.20
2018-05-07T23:33:19.559Z,18.27
2018-05-07T23:35:49.272Z,19.03
2018-05-07T23:38:19.014Z,17.80
2018-05-07T23:40:48.768Z,18.67
2018-05-07T23:43:18.700Z,16.80
2018-05-07T23:45:48.498Z,16.83
2018-05-07T23:48:19.078Z,16.43
2018-05-07T23:50:48.936Z,17.30
2018-05-07T23:53:19.562Z,17.40
2018-05-07T23:55:49.350Z,16.63
2018-05-07T23:58:19.147Z,16.17
